createdAt,value
2023-02-25T00:00:44.561Z,11.55
2023-02-25T00:02:01.652Z,11.18
2023-02-25T00:03:06.189Z,11.73
2023-02-25T00:04:09.315Z,11.18
2023-02-25T00:05:13.328Z,11.55
2023-02-25T00:06:16.763Z,11.80
2023-02-25T00:07:20.198Z,11.68
2023-02-25T00:08:23.561Z,10.90
2023-02-25T00:09:27.331Z,11.75
2023-02-25T00:10:30.980Z,11.12
2023-02-25T00:11:34.124Z,11.27
2023-02-25T00:12:37.718Z,11.12
2023-02-25T00:13:42.630Z,10.45
2023-02-25T00:14:45.789Z,11.00
2023-02-25T00:15:48.782Z,13.38
2023-02-25T00:16:54.055Z,11.05
2023-02-25T00:17:57.422Z,10.35
2023-02-25T00:19:00.857Z,11.50
2023-02-25T00:20:05.608Z,10.85
2023-02-25T00:21:15.577Z,10.70
2023-02-25T00:22:18.977Z,10.80
2023-02-25T00:23:22.414Z,10.90
2023-02-25T00:24:25.466Z,10.65
2023-02-25T00:25:29.106Z,11.45
2023-02-25T00:26:32.086Z,10.70
2023-02-25T00:27:35.787Z,10.95
2023-02-25T00:28:42.483Z,9.90
2023-02-25T00:29:45.891Z,10.90
2023-02-25T00:30:49.296Z,11.05
2023-02-25T00:31:52.717Z,11.23
2023-02-25T00:32:56.015Z,10.98
2023-02-25T00:33:59.214Z,10.57
2023-02-25T00:35:02.508Z,10.93
2023-02-25T00:36:08.867Z,11.55
2023-02-25T00:37:12.511Z,10.48
2023-02-25T00:38:16.378Z,10.25
2023-02-25T00:39:19.808Z,11.30
2023-02-25T00:40:22.969Z,10.93
2023-02-25T00:41:28.621Z,11.20
2023-02-25T00:42:31.838Z,10.45
2023-02-25T00:43:35.156Z,10.43
2023-02-25T00:44:38.556Z,11.48
2023-02-25T00:45:41.729Z,10.63
2023-02-25T00:46:44.787Z,10.80
2023-02-25T00:47:48.630Z,10.48
2023-02-25T00:48:52.293Z,9.98
2023-02-25T00:49:55.968Z,11.32
2023-02-25T00:51:04.677Z,11.05
2023-02-25T00:52:08.874Z,10.65
2023-02-25T00:53:11.869Z,10.00
2023-02-25T00:54:14.793Z,10.75
2023-02-25T00:55:18.029Z,10.95
2023-02-25T00:56:21.485Z,10.50
2023-02-25T00:57:25.428Z,9.90
2023-02-25T00:58:28.532Z,10.30
2023-02-25T00:59:32.822Z,11.25
2023-02-25T01:00:46.573Z,10.00
2023-02-25T01:01:53.699Z,10.85
2023-02-25T01:02:58.343Z,10.90
2023-02-25T01:04:02.351Z,10.35
2023-02-25T01:05:05.779Z,10.65
2023-02-25T01:06:10.259Z,10.38
2023-02-25T01:07:13.423Z,10.25
2023-02-25T01:08:19.902Z,10.45
2023-02-25T01:09:23.433Z,10.63
2023-02-25T01:10:26.661Z,9.52
2023-02-25T01:11:36.098Z,10.45
2023-02-25T01:12:39.095Z,10.20
2023-02-25T01:13:43.949Z,10.15
2023-02-25T01:14:47.018Z,10.60
2023-02-25T01:15:50.108Z,10.05
2023-02-25T01:16:56.486Z,10.10
2023-02-25T01:17:59.882Z,10.43
2023-02-25T01:19:06.169Z,9.23
2023-02-25T01:20:13.050Z,10.48
2023-02-25T01:21:21.597Z,9.57
2023-02-25T01:22:25.735Z,10.15
2023-02-25T01:23:30.447Z,9.82
2023-02-25T01:24:35.121Z,9.43
2023-02-25T01:25:41.595Z,10.00
2023-02-25T01:26:46.399Z,9.80
2023-02-25T01:27:49.434Z,10.18
2023-02-25T01:28:52.757Z,8.90
2023-02-25T01:29:56.161Z,9.55
2023-02-25T01:30:59.410Z,9.60
2023-02-25T01:32:04.401Z,10.35
2023-02-25T01:33:07.561Z,9.70
2023-02-25T01:34:14.964Z,9.07
2023-02-25T01:35:18.067Z,10.55
2023-02-25T01:36:21.503Z,9.43
2023-02-25T01:37:24.742Z,10.65
2023-02-25T01:38:28.088Z,10.18
2023-02-25T01:39:32.548Z,9.32
2023-02-25T01:40:35.887Z,9.95
2023-02-25T01:41:40.065Z,9.93
2023-02-25T01:42:45.075Z,8.65
2023-02-25T01:44:11.163Z,9.80
2023-02-25T01:45:20.577Z,10.43
2023-02-25T01:46:23.961Z,9.85
2023-02-25T01:47:31.708Z,10.25
2023-02-25T01:48:41.178Z,10.00
2023-02-25T01:49:46.843Z,9.52
2023-02-25T01:50:59.025Z,10.02
2023-02-25T01:52:16.050Z,9.30
2023-02-25T01:53:24.252Z,9.77
2023-02-25T01:54:28.417Z,10.13
2023-02-25T01:55:32.296Z,9.70
2023-02-25T01:56:48.724Z,9.35
2023-02-25T01:57:52.445Z,9.43
2023-02-25T01:58:56.122Z,9.25
2023-02-25T01:59:59.431Z,8.98
2023-02-25T02:01:02.762Z,8.98
2023-02-25T02:02:08.233Z,9.82
2023-02-25T02:03:17.633Z,8.73
2023-02-25T02:04:22.583Z,9.48
2023-02-25T02:05:49.156Z,9.90
2023-02-25T02:06:53.005Z,8.82
2023-02-25T02:07:56.278Z,9.15
2023-02-25T02:09:00.624Z,8.73
2023-02-25T02:10:04.509Z,9.85
2023-02-25T02:11:07.673Z,9.15
2023-02-25T02:12:10.772Z,8.85
2023-02-25T02:13:13.829Z,9.57
2023-02-25T02:14:21.242Z,9.38
2023-02-25T02:15:24.550Z,9.73
2023-02-25T02:16:52.645Z,8.30
2023-02-25T02:18:02.264Z,8.90
2023-02-25T02:19:20.322Z,9.30
2023-02-25T02:20:33.647Z,8.50
2023-02-25T02:21:55.095Z,8.93
2023-02-25T02:23:10.142Z,9.40
2023-02-25T02:24:40.528Z,9.38
2023-02-25T02:25:53.047Z,8.90
2023-02-25T02:27:04.228Z,8.43
2023-02-25T02:28:29.086Z,9.32
2023-02-25T02:30:05.403Z,9.10
2023-02-25T02:31:17.857Z,8.75
2023-02-25T02:32:33.270Z,8.38
2023-02-25T02:33:55.592Z,9.02
2023-02-25T02:35:24.239Z,8.80
2023-02-25T02:36:49.921Z,9.20
2023-02-25T02:37:59.059Z,8.60
2023-02-25T02:39:15.702Z,9.60
2023-02-25T02:40:30.240Z,8.38
2023-02-25T02:41:40.569Z,8.88
2023-02-25T02:43:05.156Z,8.57
2023-02-25T02:44:18.753Z,8.93
2023-02-25T02:45:35.031Z,8.13
2023-02-25T02:46:47.202Z,9.20
2023-02-25T02:47:55.201Z,7.97
2023-02-25T02:49:27.197Z,8.88
2023-02-25T02:50:41.854Z,8.82
2023-02-25T02:51:57.820Z,8.27
2023-02-25T02:53:07.233Z,8.35
2023-02-25T02:54:14.514Z,9.10
2023-02-25T02:55:25.327Z,8.27
2023-02-25T02:56:31.402Z,8.25
2023-02-25T02:57:38.793Z,8.93
2023-02-25T02:58:47.678Z,9.10
2023-02-25T02:59:58.374Z,9.23
2023-02-25T03:01:08.158Z,8.38
2023-02-25T03:02:23.020Z,8.40
2023-02-25T03:03:36.954Z,8.88
2023-02-25T03:04:48.695Z,8.60
2023-02-25T03:05:54.545Z,8.85
2023-02-25T03:07:02.935Z,8.13
2023-02-25T03:08:18.383Z,9.63
2023-02-25T03:09:30.958Z,8.93
2023-02-25T03:10:34.432Z,8.90
2023-02-25T03:11:37.436Z,8.93
2023-02-25T03:12:40.804Z,8.23
2023-02-25T03:13:44.538Z,7.87
2023-02-25T03:14:47.590Z,8.77
2023-02-25T03:15:53.134Z,8.60
2023-02-25T03:17:18.415Z,8.00
2023-02-25T03:18:48.177Z,8.57
2023-02-25T03:20:00.092Z,8.80
2023-02-25T03:21:14.059Z,8.80
2023-02-25T03:22:28.028Z,8.13
2023-02-25T03:23:34.542Z,9.85
2023-02-25T03:24:49.042Z,9.10
2023-02-25T03:25:54.101Z,8.05
2023-02-25T03:26:57.590Z,9.07
2023-02-25T03:28:13.268Z,8.75
2023-02-25T03:29:20.194Z,8.00
2023-02-25T03:30:49.099Z,8.60
2023-02-25T03:32:04.155Z,9.07
2023-02-25T03:33:49.117Z,8.13
2023-02-25T03:34:58.213Z,8.43
2023-02-25T03:36:07.840Z,9.25
2023-02-25T03:37:26.665Z,8.23
2023-02-25T03:38:34.701Z,8.35
2023-02-25T03:39:41.463Z,9.32
2023-02-25T03:40:45.108Z,8.88
2023-02-25T03:41:53.658Z,8.82
2023-02-25T03:43:08.448Z,9.32
2023-02-25T03:44:20.868Z,9.32
2023-02-25T03:45:25.190Z,8.65
2023-02-25T03:46:29.669Z,9.68
2023-02-25T03:47:36.198Z,8.82
2023-02-25T03:48:40.951Z,8.68
2023-02-25T03:49:51.033Z,8.45
2023-02-25T03:51:02.396Z,9.57
2023-02-25T03:52:14.073Z,8.95
2023-02-25T03:54:19.876Z,8.30
2023-02-25T03:55:23.550Z,9.55
2023-02-25T03:56:27.043Z,8.82
2023-02-25T03:57:43.238Z,8.48
2023-02-25T03:58:46.478Z,9.15
2023-02-25T03:59:49.554Z,8.35
2023-02-25T04:00:58.863Z,9.50
2023-02-25T04:02:03.277Z,8.90
2023-02-25T04:03:06.652Z,9.13
2023-02-25T04:04:10.104Z,9.32
2023-02-25T04:05:14.417Z,9.23
2023-02-25T04:06:23.594Z,10.02
2023-02-25T04:07:26.978Z,8.80
2023-02-25T04:08:30.195Z,8.63
2023-02-25T04:09:33.396Z,8.75
2023-02-25T04:10:36.483Z,9.05
2023-02-25T04:11:39.704Z,9.15
2023-02-25T04:12:42.947Z,9.07
2023-02-25T04:13:46.058Z,8.68
2023-02-25T04:14:49.213Z,8.85
2023-02-25T04:15:52.248Z,8.38
2023-02-25T04:16:55.430Z,8.48
2023-02-25T04:17:58.602Z,8.68
2023-02-25T04:19:01.972Z,8.68
2023-02-25T04:20:06.629Z,9.35
2023-02-25T04:21:23.099Z,9.65
2023-02-25T04:22:26.425Z,8.82
2023-02-25T04:23:29.619Z,9.00
2023-02-25T04:24:32.665Z,9.57
2023-02-25T04:25:37.896Z,9.00
2023-02-25T04:26:41.217Z,9.05
2023-02-25T04:27:44.303Z,9.50
2023-02-25T04:28:47.310Z,10.23
2023-02-25T04:29:50.701Z,8.50
2023-02-25T04:30:53.834Z,9.00
2023-02-25T04:31:57.592Z,8.68
2023-02-25T04:33:00.657Z,8.93
2023-02-25T04:34:04.055Z,8.90
2023-02-25T04:35:11.940Z,9.68
2023-02-25T04:36:30.951Z,8.85
2023-02-25T04:37:34.104Z,8.48
2023-02-25T04:38:37.264Z,8.70
2023-02-25T04:39:40.340Z,9.70
2023-02-25T04:40:44.151Z,9.23
2023-02-25T04:41:47.260Z,9.25
2023-02-25T04:42:50.313Z,10.10
2023-02-25T04:43:53.476Z,9.77
2023-02-25T04:44:56.481Z,9.48
2023-02-25T04:45:59.519Z,9.43
2023-02-25T04:47:02.621Z,9.32
2023-02-25T04:48:06.142Z,9.82
2023-02-25T04:49:09.992Z,8.55
2023-02-25T04:50:13.590Z,9.18
2023-02-25T04:51:17.024Z,8.38
2023-02-25T04:52:20.298Z,7.75
2023-02-25T04:53:23.334Z,7.72
2023-02-25T04:54:26.584Z,6.60
2023-02-25T04:55:30.550Z,5.57
2023-02-25T04:56:33.741Z,5.37
2023-02-25T04:57:42.727Z,4.80
2023-02-25T04:58:46.501Z,5.37
2023-02-25T04:59:49.862Z,5.37
2023-02-25T05:00:53.632Z,5.18
2023-02-25T05:01:56.869Z,5.10
2023-02-25T05:02:59.873Z,4.60
2023-02-25T05:04:02.900Z,5.12
2023-02-25T05:05:06.029Z,5.25
2023-02-25T05:06:09.760Z,5.20
2023-02-25T05:07:12.983Z,6.12
2023-02-25T05:08:16.144Z,5.62
2023-02-25T05:09:20.771Z,5.40
2023-02-25T05:10:23.846Z,5.40
2023-02-25T05:11:29.078Z,5.35
2023-02-25T05:12:32.017Z,5.05
2023-02-25T05:13:35.070Z,6.10
2023-02-25T05:14:38.461Z,5.57
2023-02-25T05:15:41.596Z,5.45
2023-02-25T05:16:45.029Z,5.12
2023-02-25T05:17:49.141Z,4.30
2023-02-25T05:18:53.304Z,4.50
2023-02-25T05:19:59.090Z,4.05
2023-02-25T05:21:03.928Z,4.22
2023-02-25T05:22:07.293Z,4.05
2023-02-25T05:23:10.928Z,4.37
2023-02-25T05:24:14.043Z,4.25
2023-02-25T05:25:17.255Z,3.75
2023-02-25T05:26:23.474Z,4.12
2023-02-25T05:27:26.748Z,3.17
2023-02-25T05:28:30.008Z,3.60
2023-02-25T05:29:33.075Z,4.05
2023-02-25T05:30:37.888Z,3.47
2023-02-25T05:31:41.339Z,3.15
2023-02-25T05:32:44.556Z,3.50
2023-02-25T05:33:47.773Z,2.97
2023-02-25T05:34:51.087Z,3.90
2023-02-25T05:35:54.094Z,4.00
2023-02-25T05:36:57.380Z,2.78
2023-02-25T05:38:00.702Z,3.03
2023-02-25T05:39:04.169Z,2.67
2023-02-25T05:40:10.094Z,3.05
2023-02-25T05:41:14.120Z,3.22
2023-02-25T05:42:17.155Z,2.83
2023-02-25T05:43:20.720Z,3.28
2023-02-25T05:44:23.944Z,3.25
2023-02-25T05:45:27.012Z,3.20
2023-02-25T05:46:30.649Z,2.90
2023-02-25T05:47:34.072Z,2.67
2023-02-25T05:48:37.417Z,3.30
2023-02-25T05:49:40.612Z,3.20
2023-02-25T05:50:43.949Z,2.78
2023-02-25T05:51:46.864Z,2.90
2023-02-25T05:52:49.849Z,2.80
2023-02-25T05:53:53.330Z,3.30
2023-02-25T05:54:56.626Z,3.42
2023-02-25T05:56:00.112Z,4.20
2023-02-25T05:57:03.358Z,3.47
2023-02-25T05:58:06.449Z,3.40
2023-02-25T05:59:11.442Z,3.30
2023-02-25T06:00:15.356Z,3.70
2023-02-25T06:01:23.006Z,3.12
2023-02-25T06:02:26.452Z,3.03
2023-02-25T06:03:29.730Z,3.15
2023-02-25T06:04:33.102Z,2.90
2023-02-25T06:05:41.006Z,2.92
2023-02-25T06:06:50.905Z,3.22
2023-02-25T06:07:53.940Z,3.20
2023-02-25T06:08:57.840Z,3.42
2023-02-25T06:10:02.261Z,2.67
2023-02-25T06:11:09.187Z,2.50
2023-02-25T06:12:12.343Z,2.70
2023-02-25T06:13:15.344Z,1.85
2023-02-25T06:14:18.426Z,1.75
2023-02-25T06:15:21.548Z,2.03
2023-02-25T06:16:26.409Z,1.40
2023-02-25T06:17:29.788Z,1.52
2023-02-25T06:18:37.242Z,1.77
2023-02-25T06:19:40.380Z,1.73
2023-02-25T06:20:43.425Z,1.60
2023-02-25T06:21:46.425Z,1.50
2023-02-25T06:22:49.533Z,1.40
2023-02-25T06:23:53.017Z,1.30
2023-02-25T06:24:55.946Z,1.60
2023-02-25T06:25:59.589Z,1.40
2023-02-25T06:27:03.229Z,1.25
2023-02-25T06:28:06.358Z,1.70
2023-02-25T06:29:10.777Z,1.48
2023-02-25T06:30:15.482Z,1.30
2023-02-25T06:31:20.665Z,1.37
2023-02-25T06:32:24.010Z,1.08
2023-02-25T06:33:29.481Z,1.30
2023-02-25T06:34:32.855Z,2.00
2023-02-25T06:35:36.424Z,1.42
2023-02-25T06:36:39.971Z,1.40
2023-02-25T06:37:43.377Z,1.92
2023-02-25T06:38:46.739Z,1.70
2023-02-25T06:39:49.975Z,1.55
2023-02-25T06:40:53.166Z,2.10
2023-02-25T06:41:56.633Z,2.00
2023-02-25T06:43:00.104Z,1.83
2023-02-25T06:44:04.653Z,2.10
2023-02-25T06:45:08.241Z,1.65
2023-02-25T06:46:15.131Z,1.80
2023-02-25T06:47:18.384Z,1.85
2023-02-25T06:48:21.622Z,1.87
2023-02-25T06:49:25.256Z,1.70
2023-02-25T06:50:28.515Z,2.25
2023-02-25T06:51:31.580Z,1.80
2023-02-25T06:52:34.877Z,2.00
2023-02-25T06:53:43.409Z,2.28
2023-02-25T06:54:46.404Z,1.90
2023-02-25T06:55:49.429Z,1.80
2023-02-25T06:56:53.749Z,1.80
2023-02-25T06:57:56.910Z,1.55
2023-02-25T06:59:00.877Z,1.52
2023-02-25T07:00:06.137Z,1.90
2023-02-25T07:01:13.839Z,1.65
2023-02-25T07:02:17.300Z,2.00
2023-02-25T07:03:20.587Z,1.87
2023-02-25T07:04:23.942Z,1.80
2023-02-25T07:05:28.249Z,1.77
2023-02-25T07:06:32.125Z,1.92
2023-02-25T07:07:35.225Z,2.08
2023-02-25T07:08:38.914Z,2.10
2023-02-25T07:09:41.887Z,1.52
2023-02-25T07:10:45.033Z,1.95
2023-02-25T07:11:48.139Z,1.80
2023-02-25T07:12:53.556Z,2.00
2023-02-25T07:13:57.664Z,1.60
2023-02-25T07:15:00.867Z,1.33
2023-02-25T07:16:04.496Z,1.62
2023-02-25T07:17:07.695Z,1.65
2023-02-25T07:18:10.879Z,2.22
2023-02-25T07:19:15.505Z,1.70
2023-02-25T07:20:18.688Z,1.33
2023-02-25T07:21:23.199Z,1.90
2023-02-25T07:22:26.541Z,1.80
2023-02-25T07:23:29.978Z,1.75
2023-02-25T07:24:33.420Z,1.65
2023-02-25T07:25:38.931Z,1.48
2023-02-25T07:26:42.069Z,1.65
2023-02-25T07:27:45.375Z,1.65
2023-02-25T07:28:48.604Z,1.55
2023-02-25T07:29:51.752Z,1.90
2023-02-25T07:30:54.791Z,2.03
2023-02-25T07:31:58.311Z,1.70
2023-02-25T07:33:02.978Z,1.90
2023-02-25T07:34:06.963Z,1.65
2023-02-25T07:35:10.964Z,1.50
2023-02-25T07:36:15.026Z,1.05
2023-02-25T07:37:18.147Z,1.27
2023-02-25T07:38:22.316Z,1.20
2023-02-25T07:39:25.440Z,1.10
2023-02-25T07:40:28.590Z,1.15
2023-02-25T07:41:31.902Z,1.10
2023-02-25T07:42:34.892Z,1.23
2023-02-25T07:43:38.177Z,1.60
2023-02-25T07:44:41.315Z,1.10
2023-02-25T07:45:44.318Z,0.95
2023-02-25T07:46:47.384Z,0.77
2023-02-25T07:47:53.844Z,0.77
2023-02-25T07:48:57.720Z,0.98
2023-02-25T07:50:00.761Z,1.00
2023-02-25T07:51:08.979Z,0.68
2023-02-25T07:52:12.078Z,0.85
2023-02-25T07:53:15.168Z,1.20
2023-02-25T07:54:21.521Z,0.90
2023-02-25T07:55:24.864Z,1.65
2023-02-25T07:56:30.317Z,1.30
2023-02-25T07:57:33.604Z,2.47
2023-02-25T07:58:37.540Z,2.05
2023-02-25T07:59:40.683Z,1.37
2023-02-25T08:00:45.983Z,1.33
2023-02-25T08:01:49.607Z,1.20
2023-02-25T08:02:53.109Z,1.12
2023-02-25T08:04:00.194Z,1.00
2023-02-25T08:05:03.878Z,0.95
2023-02-25T08:06:08.557Z,1.08
2023-02-25T08:07:11.680Z,1.12
2023-02-25T08:08:14.899Z,1.20
2023-02-25T08:09:18.851Z,1.25
2023-02-25T08:10:21.802Z,1.40
2023-02-25T08:11:27.268Z,1.40
2023-02-25T08:12:30.400Z,1.70
2023-02-25T08:13:33.760Z,1.62
2023-02-25T08:14:38.739Z,1.58
2023-02-25T08:15:45.684Z,1.35
2023-02-25T08:16:49.738Z,1.58
2023-02-25T08:17:53.449Z,1.80
2023-02-25T08:18:57.249Z,1.85
2023-02-25T08:20:00.541Z,1.73
2023-02-25T08:21:04.804Z,1.80
2023-02-25T08:22:12.180Z,1.92
2023-02-25T08:23:15.143Z,1.92
2023-02-25T08:24:21.132Z,2.28
2023-02-25T08:25:24.416Z,2.10
2023-02-25T08:26:27.970Z,1.77
2023-02-25T08:27:31.267Z,2.12
2023-02-25T08:28:37.014Z,2.50
2023-02-25T08:29:40.373Z,2.37
2023-02-25T08:30:43.555Z,2.22
2023-02-25T08:31:47.641Z,2.28
2023-02-25T08:32:51.579Z,2.22
2023-02-25T08:33:55.282Z,2.10
2023-02-25T08:34:58.304Z,2.20
2023-02-25T08:36:09.897Z,2.50
2023-02-25T08:38:15.891Z,2.85
2023-02-25T08:39:18.992Z,3.08
2023-02-25T08:40:23.786Z,3.15
2023-02-25T08:41:28.693Z,3.10
2023-02-25T08:42:31.796Z,2.95
2023-02-25T08:43:35.496Z,2.92
2023-02-25T08:44:38.844Z,3.55
2023-02-25T08:45:42.558Z,3.37
2023-02-25T08:46:46.212Z,3.12
2023-02-25T08:47:49.262Z,3.10
2023-02-25T08:48:53.904Z,3.40
2023-02-25T08:49:57.165Z,3.00
2023-02-25T08:51:18.620Z,3.37
2023-02-25T08:52:21.662Z,3.17
2023-02-25T08:53:25.086Z,3.10
2023-02-25T08:54:28.342Z,3.25
2023-02-25T08:55:32.898Z,3.15
2023-02-25T08:56:37.482Z,3.03
2023-02-25T08:57:40.966Z,2.75
2023-02-25T08:58:44.715Z,2.70
2023-02-25T08:59:48.010Z,2.55
2023-02-25T09:00:52.317Z,2.20
2023-02-25T09:01:55.440Z,2.42
2023-02-25T09:02:58.487Z,2.40
2023-02-25T09:04:01.594Z,2.30
2023-02-25T09:05:06.715Z,1.92
2023-02-25T09:06:09.726Z,2.00
2023-02-25T09:07:16.727Z,1.98
2023-02-25T09:08:20.322Z,2.10
2023-02-25T09:09:23.478Z,2.00
2023-02-25T09:10:26.922Z,2.00
2023-02-25T09:11:30.075Z,1.75
2023-02-25T09:12:33.870Z,1.92
2023-02-25T09:13:36.992Z,1.67
2023-02-25T09:14:40.366Z,1.50
2023-02-25T09:15:43.548Z,1.62
2023-02-25T09:16:46.971Z,1.80
2023-02-25T09:17:53.486Z,1.52
2023-02-25T09:18:56.779Z,1.40
2023-02-25T09:20:01.807Z,1.27
2023-02-25T09:21:05.210Z,1.60
2023-02-25T09:22:10.342Z,1.40
2023-02-25T09:23:14.490Z,1.62
2023-02-25T09:24:18.201Z,1.60
2023-02-25T09:25:21.852Z,1.40
2023-02-25T09:26:24.934Z,1.30
2023-02-25T09:27:29.108Z,1.80
2023-02-25T09:28:32.194Z,1.30
2023-02-25T09:29:37.444Z,1.87
2023-02-25T09:30:40.594Z,1.33
2023-02-25T09:31:43.856Z,1.52
2023-02-25T09:32:47.378Z,1.50
2023-02-25T09:33:50.628Z,1.30
2023-02-25T09:34:53.819Z,1.40
2023-02-25T09:36:08.842Z,1.20
2023-02-25T09:37:13.985Z,1.20
2023-02-25T09:38:17.738Z,1.17
2023-02-25T09:39:20.921Z,1.40
2023-02-25T09:40:25.008Z,1.50
2023-02-25T09:41:47.446Z,1.40
2023-02-25T09:43:23.472Z,1.37
2023-02-25T09:44:34.355Z,1.40
2023-02-25T09:45:37.971Z,1.40
2023-02-25T09:46:54.082Z,1.17
2023-02-25T09:48:26.169Z,0.98
2023-02-25T09:49:54.380Z,1.42
2023-02-25T09:51:06.899Z,1.30
2023-02-25T09:52:29.712Z,1.17
2023-02-25T09:53:42.572Z,1.40
2023-02-25T09:54:48.171Z,1.30
2023-02-25T09:55:53.235Z,1.33
2023-02-25T09:57:02.189Z,1.33
2023-02-25T09:58:11.700Z,1.30
2023-02-25T09:59:17.624Z,1.30
2023-02-25T10:00:23.080Z,1.30
2023-02-25T10:01:34.631Z,1.30
2023-02-25T10:02:44.716Z,1.30
2023-02-25T10:04:03.240Z,1.30
2023-02-25T10:05:21.982Z,1.45
2023-02-25T10:06:44.375Z,1.12
2023-02-25T10:07:57.621Z,1.45
2023-02-25T10:09:07.026Z,1.17
2023-02-25T10:10:34.705Z,1.30
2023-02-25T10:12:05.903Z,1.10
2023-02-25T10:13:27.496Z,1.12
2023-02-25T10:14:45.613Z,1.23
2023-02-25T10:16:01.710Z,1.08
2023-02-25T10:17:21.762Z,1.37
2023-02-25T10:18:38.746Z,1.15
2023-02-25T10:20:10.211Z,1.10
2023-02-25T10:21:28.788Z,0.70
2023-02-25T10:22:45.842Z,0.82
2023-02-25T10:24:00.735Z,1.20
2023-02-25T10:25:16.060Z,1.17
2023-02-25T10:26:24.142Z,0.80
2023-02-25T10:27:33.190Z,1.15
2023-02-25T10:28:37.294Z,1.23
2023-02-25T10:29:49.886Z,1.00
2023-02-25T10:31:00.304Z,1.10
2023-02-25T10:32:17.271Z,1.12
2023-02-25T10:33:24.723Z,1.08
2023-02-25T10:34:31.178Z,1.10
2023-02-25T10:35:39.896Z,1.00
2023-02-25T10:36:48.107Z,0.80
2023-02-25T10:37:51.363Z,1.17
2023-02-25T10:38:54.780Z,1.10
2023-02-25T10:40:00.614Z,1.23
2023-02-25T10:41:05.902Z,0.80
2023-02-25T10:42:11.330Z,1.02
2023-02-25T10:43:22.665Z,1.00
2023-02-25T10:44:25.666Z,1.15
2023-02-25T10:45:32.087Z,1.00
2023-02-25T10:46:42.945Z,1.17
2023-02-25T10:47:50.108Z,1.15
2023-02-25T10:49:02.360Z,1.12
2023-02-25T10:50:42.931Z,1.20
2023-02-25T10:52:03.547Z,1.10
2023-02-25T10:53:16.818Z,1.15
2023-02-25T10:54:23.694Z,1.23
2023-02-25T10:55:51.650Z,1.10
2023-02-25T10:56:55.498Z,1.20
2023-02-25T10:57:58.874Z,1.40
2023-02-25T10:59:21.985Z,0.82
2023-02-25T11:00:56.920Z,1.05
2023-02-25T11:02:01.776Z,1.40
2023-02-25T11:03:05.625Z,1.10
2023-02-25T11:04:14.594Z,1.15
2023-02-25T11:05:41.617Z,1.08
2023-02-25T11:06:45.496Z,1.00
2023-02-25T11:07:50.223Z,1.08
2023-02-25T11:08:58.780Z,1.05
2023-02-25T11:10:09.716Z,1.12
2023-02-25T11:11:22.154Z,0.93
2023-02-25T11:12:25.162Z,0.77
2023-02-25T11:13:30.870Z,1.10
2023-02-25T11:14:35.704Z,1.20
2023-02-25T11:15:45.756Z,1.05
2023-02-25T11:16:49.618Z,0.93
2023-02-25T11:17:54.669Z,1.12
2023-02-25T11:19:04.248Z,1.05
2023-02-25T11:20:22.457Z,1.08
2023-02-25T11:21:44.788Z,0.62
2023-02-25T11:22:53.147Z,0.73
2023-02-25T11:24:03.082Z,0.70
2023-02-25T11:25:16.421Z,1.23
2023-02-25T11:26:38.305Z,1.10
2023-02-25T11:27:43.825Z,0.95
2023-02-25T11:28:50.062Z,0.55
2023-02-25T11:30:03.438Z,0.60
2023-02-25T11:31:26.224Z,0.80
2023-02-25T11:32:30.027Z,0.52
2023-02-25T11:33:37.630Z,0.60
2023-02-25T11:34:57.060Z,0.60
2023-02-25T11:36:01.669Z,0.80
2023-02-25T11:37:36.915Z,0.60
2023-02-25T11:38:43.279Z,0.57
2023-02-25T11:39:56.711Z,0.60
2023-02-25T11:41:00.249Z,0.77
2023-02-25T11:42:23.389Z,0.57
2023-02-25T11:43:32.399Z,0.75
2023-02-25T11:44:45.806Z,0.57
2023-02-25T11:45:54.324Z,1.02
2023-02-25T11:47:01.901Z,0.70
2023-02-25T11:48:07.229Z,0.70
2023-02-25T11:49:10.866Z,0.62
2023-02-25T11:50:49.142Z,0.88
2023-02-25T11:52:16.276Z,0.60
2023-02-25T11:53:38.985Z,0.60
2023-02-25T11:55:08.676Z,0.70
2023-02-25T11:56:30.050Z,0.60
2023-02-25T11:57:51.875Z,0.70
2023-02-25T11:58:54.736Z,0.60
2023-02-25T12:00:19.606Z,0.77
2023-02-25T12:01:58.271Z,0.65
2023-02-25T12:03:27.423Z,1.05
2023-02-25T12:05:08.101Z,0.88
2023-02-25T12:06:20.220Z,0.73
2023-02-25T12:08:05.071Z,0.90
2023-02-25T12:09:44.164Z,1.10
2023-02-25T12:11:24.176Z,0.98
2023-02-25T12:12:41.665Z,1.10
2023-02-25T12:13:56.616Z,1.00
2023-02-25T12:15:24.662Z,1.27
2023-02-25T12:16:49.764Z,1.00
2023-02-25T12:18:24.523Z,0.82
2023-02-25T12:19:41.378Z,1.00
2023-02-25T12:21:20.244Z,1.12
2023-02-25T12:23:07.830Z,1.10
2023-02-25T12:24:37.727Z,1.10
2023-02-25T12:25:55.437Z,1.17
2023-02-25T12:27:07.721Z,1.33
2023-02-25T12:28:35.058Z,0.85
2023-02-25T12:30:16.073Z,0.98
2023-02-25T12:31:22.521Z,1.00
2023-02-25T12:32:44.778Z,1.00
2023-02-25T12:33:59.012Z,1.15
2023-02-25T12:35:36.586Z,1.12
2023-02-25T12:36:56.531Z,0.90
2023-02-25T12:38:37.173Z,1.05
2023-02-25T12:39:48.965Z,1.20
2023-02-25T12:41:11.004Z,0.90
2023-02-25T12:42:29.122Z,0.73
2023-02-25T12:43:41.019Z,1.00
2023-02-25T12:45:20.659Z,0.73
2023-02-25T12:46:32.294Z,0.70
2023-02-25T12:47:41.273Z,0.80
2023-02-25T12:49:05.556Z,0.75
2023-02-25T12:50:46.044Z,0.73
2023-02-25T12:52:17.449Z,0.70
2023-02-25T12:53:39.469Z,1.10
2023-02-25T12:55:36.360Z,0.73
2023-02-25T12:56:53.572Z,0.60
2023-02-25T12:58:12.035Z,0.80
2023-02-25T13:00:02.756Z,0.80
2023-02-25T13:01:09.143Z,0.90
2023-02-25T13:02:36.825Z,0.85
2023-02-25T13:03:58.375Z,1.00
2023-02-25T13:05:16.540Z,0.70
2023-02-25T13:06:47.712Z,0.90
2023-02-25T13:08:11.901Z,0.90
2023-02-25T13:09:27.430Z,1.10
2023-02-25T13:10:51.783Z,0.88
2023-02-25T13:12:23.616Z,1.00
2023-02-25T13:14:00.379Z,1.02
2023-02-25T13:15:09.459Z,1.10
2023-02-25T13:16:24.929Z,0.90
2023-02-25T13:17:48.417Z,0.80
2023-02-25T13:19:27.361Z,0.80
2023-02-25T13:20:56.261Z,0.70
2023-02-25T13:22:24.100Z,1.10
2023-02-25T13:23:56.891Z,1.00
2023-02-25T13:25:32.456Z,0.98
2023-02-25T13:27:06.013Z,1.00
2023-02-25T13:28:18.545Z,0.90
2023-02-25T13:29:27.612Z,0.88
2023-02-25T13:30:53.833Z,0.80
2023-02-25T13:32:37.054Z,0.80
2023-02-25T13:34:00.504Z,4.55
2023-02-25T13:35:13.246Z,0.60
2023-02-25T13:36:33.101Z,0.52
2023-02-25T13:37:44.583Z,0.70
2023-02-25T13:40:52.782Z,0.55
2023-02-25T13:46:47.309Z,0.50
2023-02-25T13:48:27.234Z,0.35
2023-02-25T13:49:47.245Z,0.50
2023-02-25T13:51:26.045Z,0.20
2023-02-25T13:52:36.613Z,0.40
2023-02-25T13:53:52.135Z,0.47
2023-02-25T13:55:01.938Z,0.43
2023-02-25T13:56:27.394Z,0.40
2023-02-25T13:57:46.183Z,0.60
2023-02-25T13:59:05.981Z,0.35
2023-02-25T14:00:35.663Z,0.40
2023-02-25T14:02:04.538Z,0.20
2023-02-25T14:03:34.627Z,0.30
2023-02-25T14:05:15.481Z,0.25
2023-02-25T14:06:24.805Z,0.37
2023-02-25T14:07:53.361Z,0.40
2023-02-25T14:09:24.359Z,0.55
2023-02-25T14:10:35.878Z,0.60
2023-02-25T14:12:12.091Z,0.57
2023-02-25T14:13:20.488Z,3.08
2023-02-25T14:14:39.685Z,4.28
2023-02-25T14:15:59.054Z,1.00
2023-02-25T14:17:29.734Z,0.55
2023-02-25T14:18:53.713Z,0.77
2023-02-25T14:20:31.704Z,0.82
2023-02-25T14:22:21.764Z,0.93
2023-02-25T14:24:02.570Z,0.95
2023-02-25T14:25:20.236Z,0.85
2023-02-25T14:26:37.056Z,2.67
2023-02-25T14:27:57.772Z,1.27
2023-02-25T14:29:12.982Z,0.70
2023-02-25T14:30:41.878Z,1.08
2023-02-25T14:32:02.216Z,0.93
2023-02-25T14:33:23.299Z,0.93
2023-02-25T14:34:50.819Z,0.70
2023-02-25T14:36:16.866Z,0.57
2023-02-25T14:37:25.725Z,0.70
2023-02-25T14:38:38.350Z,0.70
2023-02-25T14:40:00.227Z,0.70
2023-02-25T14:41:55.789Z,0.88
2023-02-25T14:43:16.000Z,0.70
2023-02-25T14:44:35.685Z,0.80
2023-02-25T14:45:53.276Z,0.68
2023-02-25T14:47:07.505Z,0.98
2023-02-25T14:48:44.862Z,0.65
2023-02-25T14:50:00.714Z,0.70
2023-02-25T14:51:22.454Z,0.88
2023-02-25T14:52:45.446Z,0.65
2023-02-25T14:54:27.064Z,0.77
2023-02-25T14:56:02.322Z,0.93
2023-02-25T14:57:33.056Z,0.68
2023-02-25T14:59:06.788Z,0.80
2023-02-25T15:00:28.132Z,0.73
2023-02-25T15:01:39.532Z,0.70
2023-02-25T15:03:10.859Z,0.60
2023-02-25T15:04:51.035Z,0.70
2023-02-25T15:06:13.676Z,0.75
2023-02-25T15:07:37.843Z,0.80
2023-02-25T15:09:18.482Z,0.60
2023-02-25T15:10:38.982Z,0.70
2023-02-25T15:12:07.787Z,0.65
2023-02-25T15:13:32.374Z,0.57
2023-02-25T15:15:08.785Z,0.70
2023-02-25T15:16:33.370Z,0.50
2023-02-25T15:17:54.222Z,0.65
2023-02-25T15:19:31.130Z,0.77
2023-02-25T15:20:39.199Z,0.62
2023-02-25T15:21:48.290Z,0.70
2023-02-25T15:23:07.300Z,0.90
2023-02-25T15:24:41.676Z,0.98
2023-02-25T15:26:22.158Z,0.80
2023-02-25T15:27:37.682Z,0.88
2023-02-25T15:28:44.112Z,0.90
2023-02-25T15:29:47.636Z,1.02
2023-02-25T15:31:02.427Z,0.80
2023-02-25T15:32:11.617Z,0.68
2023-02-25T15:33:34.888Z,1.10
2023-02-25T15:34:40.047Z,0.80
2023-02-25T15:35:43.712Z,1.10
2023-02-25T15:36:50.508Z,0.80
2023-02-25T15:37:56.944Z,0.80
2023-02-25T15:39:01.842Z,1.00
2023-02-25T15:40:33.584Z,0.80
2023-02-25T15:41:36.616Z,0.65
2023-02-25T15:42:50.641Z,0.77